createdAt,value
2019-01-26T00:00:03.971Z,63.00
2019-01-26T00:01:03.956Z,61.40
2019-01-26T00:02:03.944Z,63.70
2019-01-26T00:03:03.939Z,60.00
2019-01-26T00:04:03.955Z,59.40
2019-01-26T00:05:03.914Z,57.50
2019-01-26T00:06:03.906Z,59.00
2019-01-26T00:07:03.893Z,58.70
2019-01-26T00:08:03.885Z,59.30
2019-01-26T00:09:03.898Z,60.20
2019-01-26T00:10:03.865Z,57.80
2019-01-26T00:11:03.857Z,59.20
2019-01-26T00:12:03.853Z,60.50
2019-01-26T00:13:03.834Z,58.80
2019-01-26T00:14:03.841Z,60.20
2019-01-26T00:15:03.812Z,59.20
2019-01-26T00:16:03.803Z,65.00
2019-01-26T00:17:03.792Z,61.00
2019-01-26T00:18:03.778Z,59.40
2019-01-26T00:19:03.793Z,60.90
2019-01-26T00:20:03.760Z,58.20
2019-01-26T00:21:03.750Z,61.70
2019-01-26T00:22:03.738Z,60.70
2019-01-26T00:23:03.727Z,60.20
2019-01-26T00:24:03.750Z,61.00
2019-01-26T00:25:03.709Z,61.10
2019-01-26T00:26:03.701Z,62.00
2019-01-26T00:27:03.687Z,61.30
2019-01-26T00:28:03.737Z,63.20
2019-01-26T00:29:03.906Z,62.70
2019-01-26T00:30:03.657Z,65.20
2019-01-26T00:31:03.643Z,60.50
2019-01-26T00:32:03.642Z,63.60
2019-01-26T00:33:03.625Z,62.40
2019-01-26T00:34:03.629Z,61.80
2019-01-26T00:35:03.603Z,59.70
2019-01-26T00:36:03.593Z,62.90
2019-01-26T00:37:03.583Z,61.80
2019-01-26T00:38:03.575Z,61.90
2019-01-26T00:39:03.575Z,61.80
2019-01-26T00:40:03.552Z,64.40
2019-01-26T00:41:03.541Z,66.20
2019-01-26T00:42:03.535Z,66.50
2019-01-26T00:43:03.522Z,61.70
2019-01-26T00:44:03.525Z,61.90
2019-01-26T00:45:03.504Z,62.90
2019-01-26T00:46:03.500Z,61.50
2019-01-26T00:47:03.480Z,61.20
2019-01-26T00:48:03.469Z,62.20
2019-01-26T00:49:03.476Z,62.70
2019-01-26T00:50:03.451Z,61.90
2019-01-26T00:51:03.439Z,61.90
2019-01-26T00:52:03.429Z,59.50
2019-01-26T00:53:03.419Z,63.00
2019-01-26T00:54:03.418Z,63.10
2019-01-26T00:55:03.397Z,65.30
2019-01-26T00:56:03.390Z,63.30
2019-01-26T00:57:03.374Z,61.70
2019-01-26T00:58:03.363Z,60.00
2019-01-26T00:59:03.465Z,62.80
2019-01-26T01:00:03.342Z,66.40
2019-01-26T01:01:03.346Z,62.50
2019-01-26T01:02:03.337Z,62.60
2019-01-26T01:03:03.315Z,62.70
2019-01-26T01:04:03.317Z,61.10
2019-01-26T01:05:03.310Z,64.60
2019-01-26T01:06:03.285Z,64.40
2019-01-26T01:07:03.287Z,63.80
2019-01-26T01:08:03.261Z,64.00
2019-01-26T01:09:03.266Z,63.70
2019-01-26T01:10:03.243Z,61.70
2019-01-26T01:11:03.230Z,64.50
2019-01-26T01:12:03.218Z,67.40
2019-01-26T01:13:03.210Z,64.40
2019-01-26T01:14:03.209Z,65.00
2019-01-26T01:15:03.186Z,61.70
2019-01-26T01:16:03.176Z,62.10
2019-01-26T01:17:03.165Z,60.80
2019-01-26T01:18:03.157Z,60.70
2019-01-26T01:19:03.189Z,60.50
2019-01-26T01:20:03.137Z,60.30
2019-01-26T01:21:03.197Z,60.90
2019-01-26T01:22:03.127Z,65.60
2019-01-26T01:23:03.107Z,64.80
2019-01-26T01:24:03.103Z,62.60
2019-01-26T01:25:03.082Z,63.20
2019-01-26T01:26:03.075Z,60.50
2019-01-26T01:27:03.063Z,65.20
2019-01-26T01:28:03.056Z,64.00
2019-01-26T01:29:03.053Z,63.10
2019-01-26T01:30:03.033Z,64.20
2019-01-26T01:31:03.019Z,62.00
2019-01-26T01:32:03.011Z,64.00
2019-01-26T01:33:03.003Z,63.90
2019-01-26T01:34:03.004Z,65.30
2019-01-26T01:35:02.981Z,67.00
2019-01-26T01:36:02.967Z,62.90
2019-01-26T01:37:02.955Z,61.30
2019-01-26T01:38:02.988Z,62.90
2019-01-26T01:39:02.951Z,60.50
2019-01-26T01:40:02.927Z,62.90
2019-01-26T01:41:02.913Z,59.80
2019-01-26T01:42:02.905Z,61.50
2019-01-26T01:43:02.895Z,63.90
2019-01-26T01:44:02.912Z,61.50
2019-01-26T01:45:02.874Z,66.60
2019-01-26T01:46:02.865Z,66.90
2019-01-26T01:47:02.853Z,62.60
2019-01-26T01:48:02.845Z,64.40
2019-01-26T01:49:02.844Z,62.10
2019-01-26T01:50:02.864Z,63.70
2019-01-26T01:51:02.809Z,61.70
2019-01-26T01:52:02.801Z,65.80
2019-01-26T01:53:02.791Z,64.40
2019-01-26T01:54:02.791Z,62.90
2019-01-26T01:55:02.781Z,62.90
2019-01-26T01:56:02.762Z,63.10
2019-01-26T01:57:02.747Z,64.80
2019-01-26T01:58:02.737Z,61.40
2019-01-26T01:59:02.760Z,63.70
2019-01-26T02:00:02.718Z,64.30
2019-01-26T02:01:02.710Z,65.10
2019-01-26T02:02:02.699Z,65.10
2019-01-26T02:03:02.686Z,66.20
2019-01-26T02:04:02.712Z,60.70
2019-01-26T02:05:02.665Z,64.40
2019-01-26T02:06:02.661Z,64.50
2019-01-26T02:07:02.673Z,63.10
2019-01-26T02:08:02.635Z,59.50
2019-01-26T02:09:02.625Z,61.60
2019-01-26T02:10:02.628Z,61.70
2019-01-26T02:11:02.603Z,64.50
2019-01-26T02:12:02.594Z,60.90
2019-01-26T02:13:02.581Z,60.20
2019-01-26T02:14:02.573Z,60.30
2019-01-26T02:15:02.581Z,61.30
2019-01-26T02:16:02.550Z,59.80
2019-01-26T02:17:02.541Z,61.40
2019-01-26T02:18:02.531Z,58.60
2019-01-26T02:19:02.519Z,59.00
2019-01-26T02:20:02.912Z,60.70
2019-01-26T02:21:02.502Z,60.50
2019-01-26T02:22:02.493Z,61.80
2019-01-26T02:23:02.478Z,58.10
2019-01-26T02:24:02.480Z,60.10
2019-01-26T02:25:02.469Z,58.70
2019-01-26T02:26:02.530Z,61.70
2019-01-26T02:27:02.437Z,62.50
2019-01-26T02:28:02.439Z,59.60
2019-01-26T02:29:02.420Z,61.60
2019-01-26T02:30:02.418Z,62.60
2019-01-26T02:31:02.401Z,63.10
2019-01-26T02:32:02.386Z,64.70
2019-01-26T02:33:02.404Z,65.70
2019-01-26T02:34:02.365Z,61.00
2019-01-26T02:35:02.365Z,65.70
2019-01-26T02:36:02.356Z,64.60
2019-01-26T02:37:02.361Z,69.60
2019-01-26T02:38:02.323Z,66.10
2019-01-26T02:39:02.316Z,69.00
2019-01-26T02:40:02.339Z,68.40
2019-01-26T02:41:02.291Z,72.90
2019-01-26T02:42:02.282Z,73.40
2019-01-26T02:43:02.268Z,67.50
2019-01-26T02:44:02.261Z,71.10
2019-01-26T02:45:02.294Z,73.00
2019-01-26T02:46:02.545Z,73.20
2019-01-26T02:47:02.229Z,71.80
2019-01-26T02:48:02.235Z,74.70
2019-01-26T02:49:02.209Z,80.60
2019-01-26T02:50:02.211Z,75.40
2019-01-26T02:51:02.234Z,80.80
2019-01-26T02:52:02.179Z,75.60
2019-01-26T02:53:02.172Z,73.40
2019-01-26T02:54:02.164Z,70.30
2019-01-26T02:55:02.156Z,72.90
2019-01-26T02:56:02.146Z,71.20
2019-01-26T02:57:02.123Z,76.00
2019-01-26T02:58:02.118Z,68.80
2019-01-26T02:59:02.110Z,73.20
2019-01-26T03:00:02.112Z,72.30
2019-01-26T03:01:02.080Z,73.20
2019-01-26T03:02:02.076Z,69.40
2019-01-26T03:03:02.062Z,69.40
2019-01-26T03:04:02.051Z,77.10
2019-01-26T03:05:02.051Z,80.20
2019-01-26T03:06:02.031Z,78.00
2019-01-26T03:07:02.017Z,72.10
2019-01-26T03:08:02.018Z,78.60
2019-01-26T03:09:01.997Z,78.60
2019-01-26T03:10:01.998Z,81.20
2019-01-26T03:11:01.986Z,77.20
2019-01-26T03:12:01.981Z,77.40
2019-01-26T03:13:01.965Z,82.70
2019-01-26T03:14:01.952Z,84.20
2019-01-26T03:15:01.954Z,81.90
2019-01-26T03:16:01.926Z,77.50
2019-01-26T03:17:06.091Z,77.40
2019-01-26T03:18:01.908Z,78.80
2019-01-26T03:19:01.895Z,82.00
2019-01-26T03:20:01.900Z,73.00
2019-01-26T03:21:01.880Z,77.50
2019-01-26T03:22:01.867Z,75.40
2019-01-26T03:23:01.855Z,74.30
2019-01-26T03:24:01.855Z,76.80
2019-01-26T03:25:01.893Z,73.60
2019-01-26T03:26:01.833Z,78.20
2019-01-26T03:27:01.826Z,80.40
2019-01-26T03:28:01.813Z,81.10
2019-01-26T03:29:01.799Z,76.80
2019-01-26T03:30:01.833Z,77.70
2019-01-26T03:31:01.774Z,79.70
2019-01-26T03:32:01.760Z,79.10
2019-01-26T03:33:01.776Z,75.30
2019-01-26T03:34:01.739Z,76.10
2019-01-26T03:35:01.767Z,76.90
2019-01-26T03:36:01.729Z,84.80
2019-01-26T03:37:01.723Z,87.20
2019-01-26T03:38:01.703Z,83.50
2019-01-26T03:39:01.692Z,79.80
2019-01-26T03:40:01.704Z,79.30
2019-01-26T03:41:01.684Z,78.70
2019-01-26T03:42:01.665Z,79.00
2019-01-26T03:43:01.656Z,78.00
2019-01-26T03:44:01.638Z,76.30
2019-01-26T03:45:01.638Z,76.10
2019-01-26T03:46:01.615Z,78.60
2019-01-26T03:47:01.607Z,78.60
2019-01-26T03:48:01.592Z,83.90
2019-01-26T03:49:01.590Z,74.20
2019-01-26T03:50:01.610Z,73.60
2019-01-26T03:51:01.565Z,79.00
2019-01-26T03:52:01.553Z,76.10
2019-01-26T03:53:01.551Z,77.50
2019-01-26T03:54:01.529Z,75.50
2019-01-26T03:55:01.548Z,76.90
2019-01-26T03:56:01.506Z,81.30
2019-01-26T03:57:01.499Z,78.80
2019-01-26T03:58:01.486Z,78.10
2019-01-26T03:59:01.477Z,75.00
2019-01-26T04:00:01.510Z,73.90
2019-01-26T04:01:01.456Z,76.50
2019-01-26T04:02:01.448Z,75.30
2019-01-26T04:03:01.437Z,84.70
2019-01-26T04:04:01.429Z,76.30
2019-01-26T04:05:01.447Z,73.20
2019-01-26T04:06:01.412Z,75.80
2019-01-26T04:07:01.405Z,82.50
2019-01-26T04:08:01.386Z,75.40
2019-01-26T04:09:01.372Z,79.90
2019-01-26T04:10:01.361Z,83.60
2019-01-26T04:11:01.370Z,79.70
2019-01-26T04:12:01.344Z,79.10
2019-01-26T04:13:01.338Z,80.00
2019-01-26T04:14:01.322Z,88.10
2019-01-26T04:15:01.313Z,83.00
2019-01-26T04:16:01.312Z,80.80
2019-01-26T04:17:01.292Z,80.00
2019-01-26T04:18:01.285Z,77.40
2019-01-26T04:19:01.272Z,79.60
2019-01-26T04:20:01.255Z,79.20
2019-01-26T04:21:01.269Z,74.30
2019-01-26T04:22:01.246Z,80.20
2019-01-26T04:23:01.228Z,80.90
2019-01-26T04:24:01.217Z,81.90
2019-01-26T04:25:01.214Z,80.00
2019-01-26T04:26:01.212Z,71.80
2019-01-26T04:27:01.186Z,77.20
2019-01-26T04:28:01.183Z,75.50
2019-01-26T04:29:01.169Z,77.60
2019-01-26T04:30:01.156Z,88.50
2019-01-26T04:31:01.154Z,84.40
2019-01-26T04:32:01.136Z,84.30
2019-01-26T04:33:01.123Z,90.70
2019-01-26T04:34:01.120Z,80.00
2019-01-26T04:35:01.106Z,88.80
2019-01-26T04:36:01.110Z,90.90
2019-01-26T04:37:01.083Z,86.70
2019-01-26T04:38:01.075Z,85.00
2019-01-26T04:39:01.062Z,81.20
2019-01-26T04:40:01.060Z,82.00
2019-01-26T04:41:01.079Z,82.70
2019-01-26T04:42:01.031Z,84.60
2019-01-26T04:43:01.023Z,90.10
2019-01-26T04:44:01.016Z,81.70
2019-01-26T04:45:01.000Z,85.20
2019-01-26T04:46:01.029Z,87.80
2019-01-26T04:47:00.981Z,91.50
2019-01-26T04:48:00.969Z,89.00
2019-01-26T04:49:00.963Z,90.50
2019-01-26T04:50:00.948Z,88.00
2019-01-26T04:51:00.939Z,94.70
2019-01-26T04:52:00.938Z,92.10
2019-01-26T04:53:00.917Z,93.40
2019-01-26T04:54:00.909Z,90.10
2019-01-26T04:55:00.898Z,89.30
2019-01-26T04:56:00.885Z,93.20
2019-01-26T04:57:00.900Z,86.30
2019-01-26T04:58:00.861Z,87.60
2019-01-26T04:59:00.868Z,90.90
2019-01-26T05:00:00.845Z,85.60
2019-01-26T05:01:00.831Z,79.50
2019-01-26T05:02:00.841Z,84.80
2019-01-26T05:03:00.811Z,89.70
2019-01-26T05:04:00.801Z,90.80
2019-01-26T05:05:00.791Z,88.60
2019-01-26T05:06:00.782Z,83.00
2019-01-26T05:07:00.785Z,82.90
2019-01-26T05:08:00.772Z,79.10
2019-01-26T05:09:00.786Z,91.40
2019-01-26T05:10:00.744Z,88.80
2019-01-26T05:11:00.729Z,86.30
2019-01-26T05:12:00.736Z,87.20
2019-01-26T05:13:00.723Z,86.10
2019-01-26T05:14:00.703Z,82.60
2019-01-26T05:15:00.690Z,87.50
2019-01-26T05:16:00.686Z,88.00
2019-01-26T05:17:00.679Z,95.30
2019-01-26T05:18:00.654Z,92.00
2019-01-26T05:19:00.645Z,89.30
2019-01-26T05:20:00.634Z,88.10
2019-01-26T05:21:00.627Z,90.20
2019-01-26T05:22:00.632Z,79.00
2019-01-26T05:23:00.613Z,80.70
2019-01-26T05:24:00.596Z,80.80
2019-01-26T05:25:00.583Z,80.40
2019-01-26T05:26:00.574Z,85.30
2019-01-26T05:27:00.577Z,83.90
2019-01-26T05:28:00.553Z,82.20
2019-01-26T05:29:00.548Z,80.10
2019-01-26T05:30:00.630Z,88.40
2019-01-26T05:31:00.519Z,98.20
2019-01-26T05:32:00.521Z,96.40
2019-01-26T05:33:00.501Z,102.00
2019-01-26T05:34:00.490Z,94.10
2019-01-26T05:35:00.482Z,88.40
2019-01-26T05:36:00.491Z,87.20
2019-01-26T05:37:00.474Z,83.00
2019-01-26T05:38:00.458Z,80.10
2019-01-26T05:39:00.449Z,79.00
2019-01-26T05:40:00.428Z,85.10
2019-01-26T05:41:00.422Z,94.00
2019-01-26T05:42:00.417Z,89.80
2019-01-26T05:43:00.401Z,86.30
2019-01-26T05:44:00.387Z,86.60
2019-01-26T05:45:00.375Z,84.50
2019-01-26T05:46:00.366Z,85.50
2019-01-26T05:47:00.624Z,90.60
2019-01-26T05:48:00.345Z,89.20
2019-01-26T05:49:00.336Z,94.70
2019-01-26T05:50:00.329Z,108.60
2019-01-26T05:51:00.312Z,105.00
2019-01-26T05:52:00.311Z,100.00
2019-01-26T05:53:00.308Z,118.30
2019-01-26T05:54:00.285Z,114.40
2019-01-26T05:55:00.274Z,105.00
2019-01-26T05:56:00.261Z,103.80
2019-01-26T05:57:00.252Z,97.20
2019-01-26T05:58:00.252Z,94.30
2019-01-26T05:59:00.232Z,97.80
2019-01-26T06:00:00.248Z,97.30
2019-01-26T06:01:00.211Z,100.40
2019-01-26T06:02:00.203Z,100.60
2019-01-26T06:03:00.209Z,93.50
2019-01-26T06:04:00.180Z,95.00
2019-01-26T06:05:00.252Z,94.80
2019-01-26T06:06:00.161Z,90.30
2019-01-26T06:07:00.146Z,91.00
2019-01-26T06:08:00.146Z,97.90
2019-01-26T06:09:00.128Z,99.90
2019-01-26T06:10:00.119Z,103.40
2019-01-26T06:11:00.108Z,99.80
2019-01-26T06:12:00.098Z,93.60
2019-01-26T06:13:00.104Z,106.40
2019-01-26T06:14:00.076Z,101.10
2019-01-26T06:15:00.285Z,108.10
2019-01-26T06:16:00.057Z,109.00
2019-01-26T06:17:00.041Z,104.10
2019-01-26T06:18:00.044Z,102.80
2019-01-26T06:19:00.022Z,119.70
2019-01-26T06:20:00.014Z,99.20
2019-01-26T06:21:00.003Z,98.50
2019-01-26T06:21:59.991Z,99.50
2019-01-26T06:22:59.991Z,100.30
2019-01-26T06:23:59.967Z,101.60
2019-01-26T06:24:59.958Z,108.60
2019-01-26T06:25:59.950Z,103.50
2019-01-26T06:26:59.938Z,101.00
2019-01-26T06:27:59.944Z,104.50
2019-01-26T06:28:59.915Z,99.00
2019-01-26T06:29:59.906Z,103.40
2019-01-26T06:30:59.903Z,107.40
2019-01-26T06:31:59.888Z,102.40
2019-01-26T06:32:59.897Z,104.40
2019-01-26T06:33:59.866Z,106.00
2019-01-26T06:34:59.863Z,101.80
2019-01-26T06:35:59.847Z,107.70
2019-01-26T06:36:59.836Z,111.40
2019-01-26T06:37:59.836Z,106.30
2019-01-26T06:38:59.818Z,101.10
2019-01-26T06:39:59.806Z,109.30
2019-01-26T06:40:59.797Z,105.70
2019-01-26T06:41:59.781Z,104.70
2019-01-26T06:42:59.783Z,104.90
2019-01-26T06:43:59.761Z,100.80
2019-01-26T06:44:59.819Z,104.00
2019-01-26T06:45:59.740Z,92.70
2019-01-26T06:46:59.730Z,97.30
2019-01-26T06:48:02.154Z,98.70
2019-01-26T06:48:59.708Z,90.90
2019-01-26T06:49:59.698Z,98.50
2019-01-26T06:50:59.687Z,99.80
2019-01-26T06:51:59.676Z,101.80
2019-01-26T06:52:59.681Z,90.20
2019-01-26T06:53:59.676Z,88.10
2019-01-26T06:54:59.647Z,95.40
2019-01-26T06:55:59.642Z,102.70
2019-01-26T06:56:59.623Z,97.70
2019-01-26T06:57:59.631Z,98.30
2019-01-26T06:58:59.637Z,85.90
2019-01-26T06:59:59.596Z,91.80
2019-01-26T07:00:59.583Z,102.00
2019-01-26T07:01:59.575Z,95.40
2019-01-26T07:02:59.578Z,91.50
2019-01-26T07:03:59.552Z,115.20
2019-01-26T07:04:59.544Z,94.40
2019-01-26T07:05:59.532Z,92.40
2019-01-26T07:06:59.520Z,108.90
2019-01-26T07:07:59.533Z,107.60
2019-01-26T07:08:59.524Z,99.00
2019-01-26T07:09:59.492Z,98.80
2019-01-26T07:10:59.492Z,98.10
2019-01-26T07:11:59.471Z,96.80
2019-01-26T07:12:59.461Z,97.40
2019-01-26T07:13:59.475Z,94.30
2019-01-26T07:14:59.437Z,129.30
2019-01-26T07:15:59.424Z,123.70
2019-01-26T07:16:59.417Z,107.00
2019-01-26T07:17:59.403Z,106.00
2019-01-26T07:18:59.406Z,112.80
2019-01-26T07:19:59.393Z,133.60
2019-01-26T07:20:59.375Z,110.80
2019-01-26T07:21:59.368Z,111.70
2019-01-26T07:22:59.393Z,108.80
2019-01-26T07:23:59.357Z,124.60
2019-01-26T07:24:59.375Z,113.70
2019-01-26T07:25:59.320Z,114.00
2019-01-26T07:26:59.308Z,135.80
2019-01-26T07:27:59.301Z,112.20
2019-01-26T07:28:59.299Z,115.50
2019-01-26T07:29:59.277Z,112.60
2019-01-26T07:30:59.266Z,124.90
2019-01-26T07:31:59.277Z,113.60
2019-01-26T07:32:59.246Z,115.00
2019-01-26T07:33:59.250Z,139.10
2019-01-26T07:34:59.227Z,152.80
2019-01-26T07:35:59.223Z,127.10
2019-01-26T07:36:59.204Z,138.10
2019-01-26T07:37:59.194Z,142.50
2019-01-26T07:38:59.198Z,118.70
2019-01-26T07:39:59.174Z,149.40
2019-01-26T07:40:59.163Z,121.90
2019-01-26T07:41:59.149Z,179.00
2019-01-26T07:42:59.143Z,128.90
2019-01-26T07:43:59.143Z,128.10
2019-01-26T07:44:59.119Z,121.40
2019-01-26T07:45:59.111Z,113.80
2019-01-26T07:46:59.099Z,120.00
2019-01-26T07:47:59.104Z,112.50
2019-01-26T07:48:59.088Z,107.10
2019-01-26T07:49:59.067Z,118.90
2019-01-26T07:50:59.057Z,118.10
2019-01-26T07:51:59.054Z,216.90
2019-01-26T07:52:59.035Z,127.20
2019-01-26T07:53:59.046Z,125.00
2019-01-26T07:54:59.015Z,155.00
2019-01-26T07:55:59.005Z,131.50
2019-01-26T07:56:58.995Z,154.80
2019-01-26T07:57:58.989Z,128.70
2019-01-26T07:58:58.988Z,128.60
2019-01-26T07:59:58.974Z,118.40
2019-01-26T08:00:58.954Z,129.70
2019-01-26T08:01:58.942Z,113.00
2019-01-26T08:02:58.932Z,115.00
2019-01-26T08:03:58.930Z,145.70
2019-01-26T08:04:58.907Z,109.40
2019-01-26T08:05:58.898Z,124.20
2019-01-26T08:06:58.888Z,133.10
2019-01-26T08:07:58.879Z,131.70
2019-01-26T08:08:58.878Z,121.30
2019-01-26T08:09:58.855Z,155.10
2019-01-26T08:10:58.844Z,128.10
2019-01-26T08:11:58.844Z,128.70
2019-01-26T08:12:58.824Z,152.00
2019-01-26T08:13:58.829Z,138.10
2019-01-26T08:14:58.802Z,111.90
2019-01-26T08:15:58.795Z,118.70
2019-01-26T08:16:58.783Z,104.30
2019-01-26T08:17:58.772Z,126.30
2019-01-26T08:18:58.776Z,123.50
2019-01-26T08:19:58.750Z,112.90
2019-01-26T08:20:58.740Z,117.60
2019-01-26T08:21:58.727Z,113.30
2019-01-26T08:22:58.718Z,126.60
2019-01-26T08:23:58.737Z,116.40
2019-01-26T08:24:58.698Z,116.10
2019-01-26T08:25:58.685Z,120.30
2019-01-26T08:26:58.675Z,108.70
2019-01-26T08:27:58.665Z,109.10
2019-01-26T08:28:58.654Z,105.90
2019-01-26T08:29:58.654Z,135.10
2019-01-26T08:30:58.636Z,116.90
2019-01-26T08:31:58.624Z,120.00
2019-01-26T08:32:58.616Z,211.40
2019-01-26T08:33:58.603Z,133.40
2019-01-26T08:34:58.635Z,110.60
2019-01-26T08:35:58.583Z,125.90
2019-01-26T08:36:58.581Z,112.60
2019-01-26T08:37:58.563Z,111.70
2019-01-26T08:38:58.553Z,113.70
2019-01-26T08:39:58.551Z,124.20
2019-01-26T08:40:58.526Z,133.70
2019-01-26T08:41:58.520Z,129.60
2019-01-26T08:42:58.515Z,127.30
2019-01-26T08:43:58.501Z,124.90
2019-01-26T08:44:58.496Z,128.90
2019-01-26T08:45:58.477Z,116.40
2019-01-26T08:46:58.467Z,140.90
2019-01-26T08:47:58.457Z,122.70
2019-01-26T08:48:58.537Z,148.20
2019-01-26T08:49:58.452Z,110.30
2019-01-26T08:50:58.423Z,109.50
2019-01-26T08:51:58.417Z,115.80
2019-01-26T08:52:58.419Z,108.00
2019-01-26T08:53:58.414Z,105.00
2019-01-26T08:54:58.392Z,105.50
2019-01-26T08:55:58.374Z,100.20
2019-01-26T08:56:58.362Z,109.30
2019-01-26T08:57:58.352Z,115.70
2019-01-26T08:58:58.340Z,111.50
2019-01-26T08:59:58.344Z,105.50
2019-01-26T09:00:58.361Z,112.20
2019-01-26T09:01:59.151Z,112.00
2019-01-26T09:02:58.302Z,169.20
2019-01-26T09:03:58.287Z,110.30
2019-01-26T09:04:58.293Z,138.20
2019-01-26T09:05:58.270Z,108.30
2019-01-26T09:06:58.259Z,98.20
2019-01-26T09:07:58.246Z,105.00
2019-01-26T09:08:58.234Z,96.60
2019-01-26T09:09:58.237Z,98.10
2019-01-26T09:10:58.215Z,97.10
2019-01-26T09:11:58.224Z,104.40
2019-01-26T09:12:58.191Z,114.70
2019-01-26T09:13:58.187Z,107.30
2019-01-26T09:14:58.183Z,102.90
2019-01-26T09:15:58.166Z,107.60
2019-01-26T09:16:58.150Z,96.30
2019-01-26T09:17:58.141Z,110.20
2019-01-26T09:18:58.130Z,111.00
2019-01-26T09:19:58.132Z,109.90
2019-01-26T09:20:58.110Z,108.60
2019-01-26T09:21:58.102Z,109.60
2019-01-26T09:22:58.088Z,116.70
2019-01-26T09:23:58.109Z,123.20
2019-01-26T09:24:58.551Z,105.40
2019-01-26T09:25:58.059Z,108.60
2019-01-26T09:26:58.053Z,101.00
2019-01-26T09:27:58.056Z,114.70
2019-01-26T09:28:58.026Z,109.50
2019-01-26T09:29:58.042Z,101.00
2019-01-26T09:30:58.010Z,97.80
2019-01-26T09:31:57.994Z,107.60
2019-01-26T09:32:57.984Z,94.40
2019-01-26T09:33:57.974Z,108.10
2019-01-26T09:34:57.981Z,118.00
2019-01-26T09:35:57.955Z,100.80
2019-01-26T09:36:58.041Z,105.90
2019-01-26T09:37:57.936Z,105.10
2019-01-26T09:38:57.947Z,112.20
2019-01-26T09:39:57.995Z,107.20
2019-01-26T09:40:57.911Z,106.90
2019-01-26T09:41:57.900Z,97.70
2019-01-26T09:42:57.906Z,104.30
2019-01-26T09:43:57.881Z,91.20
2019-01-26T09:44:57.872Z,100.20
2019-01-26T09:45:57.942Z,92.70
2019-01-26T09:46:57.859Z,96.00
2019-01-26T09:47:57.831Z,99.90
2019-01-26T09:48:57.820Z,105.90
2019-01-26T09:49:57.807Z,106.40
2019-01-26T09:50:57.824Z,92.30
2019-01-26T09:51:57.787Z,92.40
2019-01-26T09:52:57.774Z,105.20
2019-01-26T09:53:57.769Z,94.10
2019-01-26T09:54:57.757Z,88.90
2019-01-26T09:55:57.758Z,94.40
2019-01-26T09:56:57.761Z,86.30
2019-01-26T09:57:57.723Z,84.90
2019-01-26T09:58:57.718Z,89.20
2019-01-26T09:59:57.703Z,76.90
2019-01-26T10:00:57.705Z,82.10
2019-01-26T10:01:57.679Z,82.70
2019-01-26T10:02:57.671Z,82.00
2019-01-26T10:03:57.660Z,79.20
2019-01-26T10:04:57.651Z,87.80
2019-01-26T10:05:57.651Z,76.90
2019-01-26T10:06:57.632Z,71.90
2019-01-26T10:07:57.659Z,77.80
2019-01-26T10:08:57.607Z,75.40
2019-01-26T10:09:57.597Z,76.90
2019-01-26T10:10:57.599Z,65.30
2019-01-26T10:11:57.576Z,80.50
2019-01-26T10:12:57.566Z,60.10
2019-01-26T10:13:57.562Z,66.20
2019-01-26T10:14:57.545Z,70.80
2019-01-26T10:15:57.544Z,66.90
2019-01-26T10:16:57.525Z,63.80
2019-01-26T10:17:57.513Z,57.80
2019-01-26T10:18:57.511Z,64.50
2019-01-26T10:19:57.494Z,64.60
2019-01-26T10:20:57.498Z,59.80
2019-01-26T10:21:57.471Z,68.30
2019-01-26T10:22:57.463Z,67.40
2019-01-26T10:23:57.452Z,66.00
2019-01-26T10:24:57.502Z,59.30
2019-01-26T10:26:00.539Z,68.30
2019-01-26T10:26:57.430Z,58.20
2019-01-26T10:27:57.410Z,71.80
2019-01-26T10:28:57.396Z,59.60
2019-01-26T10:29:57.394Z,62.00
2019-01-26T10:30:57.458Z,52.10
2019-01-26T10:31:57.366Z,58.90
2019-01-26T10:32:57.359Z,59.40
2019-01-26T10:33:57.361Z,66.40
2019-01-26T10:34:57.341Z,62.80
2019-01-26T10:35:57.388Z,64.10
2019-01-26T10:36:57.329Z,60.40
2019-01-26T10:37:57.314Z,66.50
2019-01-26T10:38:57.311Z,61.90
2019-01-26T10:39:57.288Z,54.70
2019-01-26T10:40:57.297Z,50.60
2019-01-26T10:41:57.260Z,51.80
2019-01-26T10:42:57.249Z,51.00
2019-01-26T10:43:57.242Z,58.90
2019-01-26T10:44:57.240Z,49.90
2019-01-26T10:45:57.316Z,60.40
2019-01-26T10:46:57.207Z,57.20
2019-01-26T10:47:57.205Z,50.80
2019-01-26T10:49:00.744Z,45.60
2019-01-26T10:49:57.174Z,48.70
2019-01-26T10:50:57.167Z,49.20
2019-01-26T10:51:57.215Z,53.70
2019-01-26T10:52:57.166Z,51.90
2019-01-26T10:53:57.134Z,49.70
2019-01-26T10:54:57.127Z,55.90
2019-01-26T10:55:57.126Z,72.30
2019-01-26T10:56:57.115Z,62.00
2019-01-26T10:57:57.091Z,51.10
2019-01-26T10:58:57.085Z,51.80
2019-01-26T10:59:57.073Z,49.80
2019-01-26T11:00:57.105Z,46.30
2019-01-26T11:01:57.197Z,50.40
2019-01-26T11:02:57.115Z,45.20
2019-01-26T11:03:57.053Z,54.40
2019-01-26T11:04:57.019Z,47.70
2019-01-26T11:05:57.007Z,48.60
2019-01-26T11:06:57.012Z,40.60
2019-01-26T11:07:57.001Z,37.90
2019-01-26T11:08:56.977Z,39.90
2019-01-26T11:09:56.964Z,40.20
2019-01-26T11:10:56.955Z,32.10
2019-01-26T11:11:56.957Z,34.40
2019-01-26T11:12:56.936Z,39.80
2019-01-26T11:13:56.926Z,35.40
2019-01-26T11:14:56.912Z,34.70
2019-01-26T11:15:56.902Z,36.60
2019-01-26T11:16:56.903Z,38.90
2019-01-26T11:17:56.878Z,39.90
2019-01-26T11:18:56.873Z,43.50
2019-01-26T11:19:56.858Z,41.50
2019-01-26T11:20:56.848Z,49.00
2019-01-26T11:21:56.856Z,34.00
2019-01-26T11:22:56.829Z,49.00
2019-01-26T11:23:56.817Z,47.30
2019-01-26T11:24:56.861Z,36.50
2019-01-26T11:25:56.797Z,38.30
2019-01-26T11:26:56.797Z,32.60
2019-01-26T11:27:56.775Z,33.50
2019-01-26T11:28:56.764Z,26.70
2019-01-26T11:29:56.754Z,33.80
2019-01-26T11:30:56.745Z,33.30
2019-01-26T11:31:56.828Z,36.20
2019-01-26T11:32:56.731Z,29.70
2019-01-26T11:33:56.712Z,28.60
2019-01-26T11:34:56.702Z,34.10
2019-01-26T11:35:56.690Z,31.20
2019-01-26T11:36:56.708Z,26.10
2019-01-26T11:37:56.669Z,26.60
2019-01-26T11:38:56.660Z,23.60
2019-01-26T11:39:56.649Z,29.10
2019-01-26T11:40:56.657Z,31.10
2019-01-26T11:41:56.626Z,24.90
2019-01-26T11:42:57.403Z,24.20
2019-01-26T11:43:56.607Z,21.30
2019-01-26T11:44:56.604Z,27.30
2019-01-26T11:45:56.582Z,23.10
2019-01-26T11:46:56.576Z,23.60
2019-01-26T11:47:56.582Z,26.10
2019-01-26T11:48:56.585Z,23.50
2019-01-26T11:49:56.546Z,18.00
2019-01-26T11:50:56.582Z,27.50
2019-01-26T11:51:56.574Z,25.40
2019-01-26T11:52:56.721Z,23.80
2019-01-26T11:53:56.551Z,22.00
2019-01-26T11:54:56.569Z,24.40
2019-01-26T11:55:56.583Z,26.70
2019-01-26T11:56:56.478Z,24.10
2019-01-26T11:57:56.504Z,25.50
2019-01-26T11:58:56.508Z,29.80
2019-01-26T11:59:56.506Z,23.50
2019-01-26T12:00:59.444Z,25.60
2019-01-26T12:01:56.483Z,20.20
2019-01-26T12:02:56.503Z,20.40
2019-01-26T12:03:56.409Z,24.40
2019-01-26T12:04:56.512Z,29.10
2019-01-26T12:05:56.380Z,23.20
2019-01-26T12:06:56.550Z,23.00
2019-01-26T12:07:56.510Z,24.60
2019-01-26T12:08:56.388Z,24.90
2019-01-26T12:09:56.465Z,24.50
2019-01-26T12:10:56.392Z,24.10
2019-01-26T12:11:56.568Z,19.90
2019-01-26T12:12:56.313Z,21.90
2019-01-26T12:13:56.286Z,23.80
2019-01-26T12:14:56.277Z,22.40
2019-01-26T12:15:56.273Z,21.60
2019-01-26T12:16:56.254Z,22.80
2019-01-26T12:17:56.241Z,21.90
2019-01-26T12:18:56.244Z,22.50
2019-01-26T12:19:56.226Z,23.80
2019-01-26T12:20:56.212Z,21.50
2019-01-26T12:21:56.225Z,23.70
2019-01-26T12:22:56.192Z,26.80
2019-01-26T12:23:56.204Z,21.10
2019-01-26T12:24:56.179Z,23.10
2019-01-26T12:25:56.156Z,22.80
2019-01-26T12:26:56.143Z,19.90
2019-01-26T12:27:56.953Z,19.70
2019-01-26T12:28:56.135Z,20.70
2019-01-26T12:29:56.119Z,20.10
2019-01-26T12:30:56.103Z,20.70
2019-01-26T12:31:56.094Z,21.90
2019-01-26T12:32:56.083Z,19.90
2019-01-26T12:33:56.079Z,22.40
2019-01-26T12:34:56.058Z,21.60
2019-01-26T12:35:56.047Z,22.00
2019-01-26T12:36:56.055Z,20.30
2019-01-26T12:37:56.035Z,20.40
2019-01-26T12:38:56.032Z,19.30
2019-01-26T12:39:56.011Z,22.50
2019-01-26T12:40:55.997Z,17.20
2019-01-26T12:41:55.983Z,21.80
2019-01-26T12:42:55.975Z,21.90
2019-01-26T12:43:55.974Z,18.60
2019-01-26T12:44:55.951Z,19.40
2019-01-26T12:45:55.950Z,20.70